Donaldson, Indiana
Current Conditions -  °F | °C
As of 8:15 AM on Friday 28 Nov 2014 (Local Time) from KOXI Reporting Station
Overcast Overcast  
Wind Chill: 11°   Ceiling: 7000
Heat Index: 21°   Visibility: 10mi
Dew Point: 15°   Wind: 8mph
Humidity: 79%   Direction: 170°S
Pressure: 30.32"   Gusts: NA
Location:  41.36°N, 86.44°W
Report Text: KOXI 281315Z AUTO 17007KT 10SM BKN070 OVC080 M06/M09 A3032 RMK AO1 T10611092
Loading
Personal Weather Stations






























Interactive Weather Map New forecast layout! Learn more

10-Day Weather Forecast

Advertisements
Track Severe Weather on mobile